sensor_id;sensor_type;location;lat;lon;timestamp;P1;durP1;ratioP1;P2;durP2;ratioP2
31906;SDS011;18455;50.858;13.662;2023-04-24T00:02:34;4.82;;;4.03;;
31906;SDS011;18455;50.858;13.662;2023-04-24T00:07:34;4.95;;;3.75;;
31906;SDS011;18455;50.858;13.662;2023-04-24T00:12:35;5.57;;;3.45;;
31906;SDS011;18455;50.858;13.662;2023-04-24T00:17:35;5.50;;;3.90;;
31906;SDS011;18455;50.858;13.662;2023-04-24T00:22:36;6.13;;;4.30;;
31906;SDS011;18455;50.858;13.662;2023-04-24T00:27:36;6.93;;;5.10;;
31906;SDS011;18455;50.858;13.662;2023-04-24T00:32:37;7.10;;;4.97;;
31906;SDS011;18455;50.858;13.662;2023-04-24T00:37:37;4.95;;;4.45;;
31906;SDS011;18455;50.858;13.662;2023-04-24T00:42:38;5.10;;;4.60;;
31906;SDS011;18455;50.858;13.662;2023-04-24T00:47:40;5.88;;;4.22;;
31906;SDS011;18455;50.858;13.662;2023-04-24T00:52:41;5.63;;;3.90;;
31906;SDS011;18455;50.858;13.662;2023-04-24T00:57:42;3.80;;;3.40;;
31906;SDS011;18455;50.858;13.662;2023-04-24T01:02:43;4.18;;;3.50;;
31906;SDS011;18455;50.858;13.662;2023-04-24T01:07:45;5.00;;;3.20;;
31906;SDS011;18455;50.858;13.662;2023-04-24T01:12:47;4.93;;;2.83;;
31906;SDS011;18455;50.858;13.662;2023-04-24T01:17:47;5.05;;;2.67;;
31906;SDS011;18455;50.858;13.662;2023-04-24T01:22:48;5.20;;;3.00;;
31906;SDS011;18455;50.858;13.662;2023-04-24T01:27:49;3.90;;;2.38;;
31906;SDS011;18455;50.858;13.662;2023-04-24T01:32:50;2.83;;;2.20;;
31906;SDS011;18455;50.858;13.662;2023-04-24T01:37:50;2.65;;;2.15;;
31906;SDS011;18455;50.858;13.662;2023-04-24T01:42:51;2.63;;;2.08;;
31906;SDS011;18455;50.858;13.662;2023-04-24T01:47:51;2.40;;;2.20;;
31906;SDS011;18455;50.858;13.662;2023-04-24T01:52:52;5.10;;;1.98;;
31906;SDS011;18455;50.858;13.662;2023-04-24T01:57:52;2.15;;;1.95;;
31906;SDS011;18455;50.858;13.662;2023-04-24T02:02:55;2.13;;;1.90;;
31906;SDS011;18455;50.858;13.662;2023-04-24T02:07:56;3.83;;;2.05;;
31906;SDS011;18455;50.858;13.662;2023-04-24T02:12:56;2.25;;;1.80;;
31906;SDS011;18455;50.858;13.662;2023-04-24T02:17:58;2.88;;;2.08;;
31906;SDS011;18455;50.858;13.662;2023-04-24T02:22:58;1.88;;;1.70;;
31906;SDS011;18455;50.858;13.662;2023-04-24T02:27:58;1.45;;;1.30;;
31906;SDS011;18455;50.858;13.662;2023-04-24T02:33:00;1.90;;;1.75;;
31906;SDS011;18455;50.858;13.662;2023-04-24T02:38:01;2.75;;;2.45;;
31906;SDS011;18455;50.858;13.662;2023-04-24T02:43:01;3.40;;;3.07;;
31906;SDS011;18455;50.858;13.662;2023-04-24T02:48:02;2.67;;;1.85;;
31906;SDS011;18455;50.858;13.662;2023-04-24T02:53:03;1.27;;;1.17;;
31906;SDS011;18455;50.858;13.662;2023-04-24T02:58:03;1.33;;;1.23;;
31906;SDS011;18455;50.858;13.662;2023-04-24T03:03:04;1.00;;;1.00;;
31906;SDS011;18455;50.858;13.662;2023-04-24T03:08:04;1.70;;;1.20;;
31906;SDS011;18455;50.858;13.662;2023-04-24T03:13:05;1.93;;;1.20;;
31906;SDS011;18455;50.858;13.662;2023-04-24T03:18:05;1.23;;;1.00;;
31906;SDS011;18455;50.858;13.662;2023-04-24T03:23:06;1.30;;;1.03;;
31906;SDS011;18455;50.858;13.662;2023-04-24T03:28:06;1.53;;;0.90;;
31906;SDS011;18455;50.858;13.662;2023-04-24T03:33:16;1.97;;;1.10;;
31906;SDS011;18455;50.858;13.662;2023-04-24T03:38:27;1.77;;;1.07;;
31906;SDS011;18455;50.858;13.662;2023-04-24T03:43:50;1.50;;;1.00;;
31906;SDS011;18455;50.858;13.662;2023-04-24T03:48:51;4.83;;;1.20;;
31906;SDS011;18455;50.858;13.662;2023-04-24T03:53:53;1.40;;;1.10;;
31906;SDS011;18455;50.858;13.662;2023-04-24T03:58:56;1.67;;;1.17;;
31906;SDS011;18455;50.858;13.662;2023-04-24T04:03:56;1.63;;;1.00;;
31906;SDS011;18455;50.858;13.662;2023-04-24T04:08:59;1.83;;;1.10;;
31906;SDS011;18455;50.858;13.662;2023-04-24T04:13:59;1.53;;;1.23;;
31906;SDS011;18455;50.858;13.662;2023-04-24T04:19:00;1.97;;;1.10;;
31906;SDS011;18455;50.858;13.662;2023-04-24T04:24:00;2.17;;;1.00;;
31906;SDS011;18455;50.858;13.662;2023-04-24T04:29:07;2.60;;;1.37;;
31906;SDS011;18455;50.858;13.662;2023-04-24T04:34:10;0.90;;;0.90;;
31906;SDS011;18455;50.858;13.662;2023-04-24T04:39:12;1.50;;;1.30;;
31906;SDS011;18455;50.858;13.662;2023-04-24T04:44:41;3.57;;;1.37;;
31906;SDS011;18455;50.858;13.662;2023-04-24T04:49:44;1.90;;;1.00;;
31906;SDS011;18455;50.858;13.662;2023-04-24T04:54:52;4.07;;;1.17;;
31906;SDS011;18455;50.858;13.662;2023-04-24T04:59:53;2.73;;;1.10;;
31906;SDS011;18455;50.858;13.662;2023-04-24T05:05:07;7.93;;;6.23;;
31906;SDS011;18455;50.858;13.662;2023-04-24T05:10:08;7.73;;;4.63;;
31906;SDS011;18455;50.858;13.662;2023-04-24T05:15:09;12.97;;;8.83;;
31906;SDS011;18455;50.858;13.662;2023-04-24T05:20:10;12.03;;;10.07;;
31906;SDS011;18455;50.858;13.662;2023-04-24T05:25:11;1.70;;;1.60;;
31906;SDS011;18455;50.858;13.662;2023-04-24T05:30:25;1.70;;;1.13;;
31906;SDS011;18455;50.858;13.662;2023-04-24T05:35:25;1.23;;;1.10;;
31906;SDS011;18455;50.858;13.662;2023-04-24T05:40:26;2.97;;;1.00;;
31906;SDS011;18455;50.858;13.662;2023-04-24T05:45:26;2.08;;;0.90;;
31906;SDS011;18455;50.858;13.662;2023-04-24T05:50:27;2.23;;;1.00;;
31906;SDS011;18455;50.858;13.662;2023-04-24T05:55:27;0.90;;;0.90;;
31906;SDS011;18455;50.858;13.662;2023-04-24T06:00:28;1.48;;;1.17;;
31906;SDS011;18455;50.858;13.662;2023-04-24T06:05:38;3.10;;;0.93;;
31906;SDS011;18455;50.858;13.662;2023-04-24T06:10:38;1.55;;;1.10;;
31906;SDS011;18455;50.858;13.662;2023-04-24T06:15:41;1.60;;;1.10;;
31906;SDS011;18455;50.858;13.662;2023-04-24T06:20:46;1.00;;;1.00;;
31906;SDS011;18455;50.858;13.662;2023-04-24T06:25:46;3.53;;;0.90;;
31906;SDS011;18455;50.858;13.662;2023-04-24T06:30:47;3.70;;;0.98;;
31906;SDS011;18455;50.858;13.662;2023-04-24T06:35:47;2.97;;;1.35;;
31906;SDS011;18455;50.858;13.662;2023-04-24T06:40:48;2.55;;;0.90;;
31906;SDS011;18455;50.858;13.662;2023-04-24T06:45:48;1.10;;;1.00;;
31906;SDS011;18455;50.858;13.662;2023-04-24T06:50:48;1.02;;;0.93;;
31906;SDS011;18455;50.858;13.662;2023-04-24T06:55:49;1.58;;;0.80;;
31906;SDS011;18455;50.858;13.662;2023-04-24T07:00:49;2.58;;;1.40;;
31906;SDS011;18455;50.858;13.662;2023-04-24T07:05:49;1.05;;;0.90;;
31906;SDS011;18455;50.858;13.662;2023-04-24T07:10:51;2.83;;;0.90;;
31906;SDS011;18455;50.858;13.662;2023-04-24T07:15:51;3.67;;;0.98;;
31906;SDS011;18455;50.858;13.662;2023-04-24T07:20:53;2.92;;;1.13;;
31906;SDS011;18455;50.858;13.662;2023-04-24T07:25:54;0.73;;;0.73;;
31906;SDS011;18455;50.858;13.662;2023-04-24T07:30:54;1.33;;;0.95;;
31906;SDS011;18455;50.858;13.662;2023-04-24T07:35:55;2.00;;;0.57;;
31906;SDS011;18455;50.858;13.662;2023-04-24T07:40:55;1.42;;;0.80;;
31906;SDS011;18455;50.858;13.662;2023-04-24T07:45:55;1.58;;;0.70;;
31906;SDS011;18455;50.858;13.662;2023-04-24T07:50:56;1.33;;;0.70;;
31906;SDS011;18455;50.858;13.662;2023-04-24T07:55:56;1.63;;;0.80;;
31906;SDS011;18455;50.858;13.662;2023-04-24T08:00:57;1.13;;;0.80;;
31906;SDS011;18455;50.858;13.662;2023-04-24T08:05:57;0.80;;;0.70;;
31906;SDS011;18455;50.858;13.662;2023-04-24T08:10:57;4.70;;;0.75;;
31906;SDS011;18455;50.858;13.662;2023-04-24T08:15:58;1.35;;;0.70;;
31906;SDS011;18455;50.858;13.662;2023-04-24T08:20:58;1.25;;;0.90;;
31906;SDS011;18455;50.858;13.662;2023-04-24T08:26:01;0.60;;;0.60;;
31906;SDS011;18455;50.858;13.662;2023-04-24T08:31:01;1.30;;;0.95;;
31906;SDS011;18455;50.858;13.662;2023-04-24T08:36:02;2.55;;;0.88;;
31906;SDS011;18455;50.858;13.662;2023-04-24T08:41:03;3.00;;;0.80;;
31906;SDS011;18455;50.858;13.662;2023-04-24T08:46:04;1.42;;;0.80;;
31906;SDS011;18455;50.858;13.662;2023-04-24T08:51:07;3.25;;;0.95;;
31906;SDS011;18455;50.858;13.662;2023-04-24T08:56:07;1.60;;;0.85;;
31906;SDS011;18455;50.858;13.662;2023-04-24T09:01:08;1.02;;;0.98;;
31906;SDS011;18455;50.858;13.662;2023-04-24T09:06:09;2.08;;;0.98;;
31906;SDS011;18455;50.858;13.662;2023-04-24T09:11:10;2.25;;;0.80;;
31906;SDS011;18455;50.858;13.662;2023-04-24T09:16:11;1.02;;;0.80;;
31906;SDS011;18455;50.858;13.662;2023-04-24T09:21:11;1.00;;;0.80;;
31906;SDS011;18455;50.858;13.662;2023-04-24T09:26:12;0.77;;;0.70;;
31906;SDS011;18455;50.858;13.662;2023-04-24T09:31:15;1.20;;;0.80;;
31906;SDS011;18455;50.858;13.662;2023-04-24T09:36:18;0.63;;;0.63;;
31906;SDS011;18455;50.858;13.662;2023-04-24T09:41:18;0.65;;;0.65;;
31906;SDS011;18455;50.858;13.662;2023-04-24T09:46:19;0.63;;;0.63;;
31906;SDS011;18455;50.858;13.662;2023-04-24T09:51:19;2.13;;;0.85;;
31906;SDS011;18455;50.858;13.662;2023-04-24T09:56:33;1.00;;;0.90;;
31906;SDS011;18455;50.858;13.662;2023-04-24T10:01:34;2.08;;;0.70;;
31906;SDS011;18455;50.858;13.662;2023-04-24T10:06:35;0.82;;;0.75;;
31906;SDS011;18455;50.858;13.662;2023-04-24T10:11:35;0.80;;;0.80;;
31906;SDS011;18455;50.858;13.662;2023-04-24T10:16:37;0.75;;;0.65;;
31906;SDS011;18455;50.858;13.662;2023-04-24T10:21:38;0.80;;;0.80;;
31906;SDS011;18455;50.858;13.662;2023-04-24T10:26:42;1.63;;;0.80;;
31906;SDS011;18455;50.858;13.662;2023-04-24T10:31:43;1.05;;;0.65;;
31906;SDS011;18455;50.858;13.662;2023-04-24T10:36:48;1.70;;;1.05;;
31906;SDS011;18455;50.858;13.662;2023-04-24T10:41:51;1.20;;;0.82;;
31906;SDS011;18455;50.858;13.662;2023-04-24T10:46:54;0.55;;;0.50;;
31906;SDS011;18455;50.858;13.662;2023-04-24T10:51:59;1.25;;;0.90;;
31906;SDS011;18455;50.858;13.662;2023-04-24T10:57:43;5.10;;;1.95;;
31906;SDS011;18455;50.858;13.662;2023-04-24T11:02:36;0.70;;;0.70;;
31906;SDS011;18455;50.858;13.662;2023-04-24T11:13:16;1.95;;;1.10;;
31906;SDS011;18455;50.858;13.662;2023-04-24T11:18:18;0.90;;;0.90;;
31906;SDS011;18455;50.858;13.662;2023-04-24T11:23:18;1.70;;;0.77;;
31906;SDS011;18455;50.858;13.662;2023-04-24T11:28:19;0.75;;;0.75;;
31906;SDS011;18455;50.858;13.662;2023-04-24T11:33:20;1.15;;;0.90;;
31906;SDS011;18455;50.858;13.662;2023-04-24T11:38:21;1.13;;;0.95;;
31906;SDS011;18455;50.858;13.662;2023-04-24T11:43:21;1.30;;;1.08;;
31906;SDS011;18455;50.858;13.662;2023-04-24T11:48:22;3.60;;;1.40;;
31906;SDS011;18455;50.858;13.662;2023-04-24T11:53:23;1.60;;;1.00;;
31906;SDS011;18455;50.858;13.662;2023-04-24T11:58:23;1.45;;;1.00;;
31906;SDS011;18455;50.858;13.662;2023-04-24T12:03:23;1.05;;;1.05;;
31906;SDS011;18455;50.858;13.662;2023-04-24T12:08:27;3.25;;;0.93;;
31906;SDS011;18455;50.858;13.662;2023-04-24T12:13:28;3.25;;;0.93;;
31906;SDS011;18455;50.858;13.662;2023-04-24T12:18:29;2.90;;;0.98;;
31906;SDS011;18455;50.858;13.662;2023-04-24T12:23:33;0.90;;;0.80;;
31906;SDS011;18455;50.858;13.662;2023-04-24T12:28:35;1.45;;;1.00;;
31906;SDS011;18455;50.858;13.662;2023-04-24T12:33:37;1.92;;;0.85;;
31906;SDS011;18455;50.858;13.662;2023-04-24T12:38:38;0.73;;;0.73;;
31906;SDS011;18455;50.858;13.662;2023-04-24T12:43:53;2.60;;;1.40;;
31906;SDS011;18455;50.858;13.662;2023-04-24T12:48:55;1.65;;;0.90;;
31906;SDS011;18455;50.858;13.662;2023-04-24T12:53:55;1.20;;;0.90;;
31906;SDS011;18455;50.858;13.662;2023-04-24T12:58:56;1.27;;;1.00;;
31906;SDS011;18455;50.858;13.662;2023-04-24T13:03:56;2.05;;;1.00;;
31906;SDS011;18455;50.858;13.662;2023-04-24T13:08:56;3.70;;;1.27;;
31906;SDS011;18455;50.858;13.662;2023-04-24T13:13:57;1.52;;;1.10;;
31906;SDS011;18455;50.858;13.662;2023-04-24T13:18:58;1.48;;;1.05;;
31906;SDS011;18455;50.858;13.662;2023-04-24T13:23:58;1.30;;;1.00;;
31906;SDS011;18455;50.858;13.662;2023-04-24T13:28:59;2.38;;;1.08;;
31906;SDS011;18455;50.858;13.662;2023-04-24T13:33:59;2.25;;;1.10;;
31906;SDS011;18455;50.858;13.662;2023-04-24T13:38:59;1.00;;;1.00;;
31906;SDS011;18455;50.858;13.662;2023-04-24T13:44:00;1.40;;;1.17;;
31906;SDS011;18455;50.858;13.662;2023-04-24T13:49:01;4.97;;;1.15;;
31906;SDS011;18455;50.858;13.662;2023-04-24T13:54:03;1.38;;;0.90;;
31906;SDS011;18455;50.858;13.662;2023-04-24T13:59:03;2.35;;;1.38;;
31906;SDS011;18455;50.858;13.662;2023-04-24T14:04:05;1.27;;;1.10;;
31906;SDS011;18455;50.858;13.662;2023-04-24T14:09:05;1.20;;;1.10;;
31906;SDS011;18455;50.858;13.662;2023-04-24T14:14:06;1.48;;;1.20;;
31906;SDS011;18455;50.858;13.662;2023-04-24T14:19:07;1.98;;;1.30;;
31906;SDS011;18455;50.858;13.662;2023-04-24T14:24:08;1.08;;;1.00;;
31906;SDS011;18455;50.858;13.662;2023-04-24T14:29:08;2.00;;;1.45;;
31906;SDS011;18455;50.858;13.662;2023-04-24T14:34:08;2.85;;;1.60;;
31906;SDS011;18455;50.858;13.662;2023-04-24T14:39:09;1.15;;;1.05;;
31906;SDS011;18455;50.858;13.662;2023-04-24T14:44:10;2.20;;;1.20;;
31906;SDS011;18455;50.858;13.662;2023-04-24T14:49:10;2.05;;;1.73;;
31906;SDS011;18455;50.858;13.662;2023-04-24T14:54:12;2.55;;;1.38;;
31906;SDS011;18455;50.858;13.662;2023-04-24T14:59:13;2.55;;;1.23;;
31906;SDS011;18455;50.858;13.662;2023-04-24T15:04:14;2.35;;;1.10;;
31906;SDS011;18455;50.858;13.662;2023-04-24T15:09:14;1.20;;;1.10;;
31906;SDS011;18455;50.858;13.662;2023-04-24T15:14:15;1.30;;;1.20;;
31906;SDS011;18455;50.858;13.662;2023-04-24T15:19:15;1.25;;;1.10;;
31906;SDS011;18455;50.858;13.662;2023-04-24T15:24:16;1.50;;;1.30;;
31906;SDS011;18455;50.858;13.662;2023-04-24T15:29:16;1.50;;;1.40;;
31906;SDS011;18455;50.858;13.662;2023-04-24T15:34:16;1.30;;;1.20;;
31906;SDS011;18455;50.858;13.662;2023-04-24T15:39:17;1.58;;;1.40;;
31906;SDS011;18455;50.858;13.662;2023-04-24T15:44:17;2.60;;;1.90;;
31906;SDS011;18455;50.858;13.662;2023-04-24T15:49:18;2.15;;;1.30;;
31906;SDS011;18455;50.858;13.662;2023-04-24T15:54:18;1.88;;;1.60;;
31906;SDS011;18455;50.858;13.662;2023-04-24T15:59:18;2.50;;;1.67;;
31906;SDS011;18455;50.858;13.662;2023-04-24T16:04:19;2.15;;;1.98;;
31906;SDS011;18455;50.858;13.662;2023-04-24T16:09:19;3.13;;;2.30;;
31906;SDS011;18455;50.858;13.662;2023-04-24T16:14:20;2.38;;;2.03;;
31906;SDS011;18455;50.858;13.662;2023-04-24T16:19:20;2.78;;;2.05;;
31906;SDS011;18455;50.858;13.662;2023-04-24T16:24:23;2.40;;;1.90;;
31906;SDS011;18455;50.858;13.662;2023-04-24T16:29:24;8.32;;;2.28;;
31906;SDS011;18455;50.858;13.662;2023-04-24T16:34:24;5.37;;;1.90;;
31906;SDS011;18455;50.858;13.662;2023-04-24T16:39:25;1.70;;;1.60;;
31906;SDS011;18455;50.858;13.662;2023-04-24T16:44:26;1.73;;;1.63;;
31906;SDS011;18455;50.858;13.662;2023-04-24T16:49:26;1.40;;;1.27;;
31906;SDS011;18455;50.858;13.662;2023-04-24T16:54:29;1.75;;;1.65;;
31906;SDS011;18455;50.858;13.662;2023-04-24T16:59:33;2.75;;;1.30;;
31906;SDS011;18455;50.858;13.662;2023-04-24T17:04:33;3.17;;;1.60;;
31906;SDS011;18455;50.858;13.662;2023-04-24T17:09:36;1.38;;;1.20;;
31906;SDS011;18455;50.858;13.662;2023-04-24T17:14:37;1.77;;;1.20;;
31906;SDS011;18455;50.858;13.662;2023-04-24T17:19:37;1.70;;;1.42;;
31906;SDS011;18455;50.858;13.662;2023-04-24T17:24:38;1.57;;;1.20;;
31906;SDS011;18455;50.858;13.662;2023-04-24T17:29:39;1.67;;;1.30;;
31906;SDS011;18455;50.858;13.662;2023-04-24T17:34:39;1.57;;;1.47;;
31906;SDS011;18455;50.858;13.662;2023-04-24T17:39:40;2.97;;;2.10;;
31906;SDS011;18455;50.858;13.662;2023-04-24T17:44:40;1.57;;;1.37;;
31906;SDS011;18455;50.858;13.662;2023-04-24T17:49:40;1.23;;;1.00;;
31906;SDS011;18455;50.858;13.662;2023-04-24T17:54:41;0.90;;;0.90;;
31906;SDS011;18455;50.858;13.662;2023-04-24T17:59:42;0.90;;;0.90;;
31906;SDS011;18455;50.858;13.662;2023-04-24T18:04:42;1.60;;;1.37;;
31906;SDS011;18455;50.858;13.662;2023-04-24T18:09:43;1.10;;;1.00;;
31906;SDS011;18455;50.858;13.662;2023-04-24T18:14:43;1.00;;;1.00;;
31906;SDS011;18455;50.858;13.662;2023-04-24T18:19:43;1.20;;;1.10;;
31906;SDS011;18455;50.858;13.662;2023-04-24T18:24:44;1.73;;;1.50;;
31906;SDS011;18455;50.858;13.662;2023-04-24T18:29:44;1.57;;;1.30;;
31906;SDS011;18455;50.858;13.662;2023-04-24T18:34:44;1.57;;;1.27;;
31906;SDS011;18455;50.858;13.662;2023-04-24T18:39:45;1.60;;;1.50;;
31906;SDS011;18455;50.858;13.662;2023-04-24T18:44:45;1.70;;;1.60;;
31906;SDS011;18455;50.858;13.662;2023-04-24T18:49:45;2.00;;;1.50;;
31906;SDS011;18455;50.858;13.662;2023-04-24T18:54:46;1.63;;;1.50;;
31906;SDS011;18455;50.858;13.662;2023-04-24T18:59:47;2.30;;;1.80;;
31906;SDS011;18455;50.858;13.662;2023-04-24T19:04:47;1.67;;;1.27;;
31906;SDS011;18455;50.858;13.662;2023-04-24T19:09:49;1.60;;;1.50;;
31906;SDS011;18455;50.858;13.662;2023-04-24T19:14:49;1.77;;;1.67;;
31906;SDS011;18455;50.858;13.662;2023-04-24T19:19:50;2.13;;;1.90;;
31906;SDS011;18455;50.858;13.662;2023-04-24T19:24:51;2.13;;;1.97;;
31906;SDS011;18455;50.858;13.662;2023-04-24T19:29:52;1.90;;;1.80;;
31906;SDS011;18455;50.858;13.662;2023-04-24T19:34:53;4.43;;;1.80;;
31906;SDS011;18455;50.858;13.662;2023-04-24T19:39:53;1.87;;;1.77;;
31906;SDS011;18455;50.858;13.662;2023-04-24T19:44:53;1.93;;;1.70;;
31906;SDS011;18455;50.858;13.662;2023-04-24T19:49:54;1.93;;;1.83;;
31906;SDS011;18455;50.858;13.662;2023-04-24T19:54:55;2.13;;;1.97;;
31906;SDS011;18455;50.858;13.662;2023-04-24T19:59:55;2.60;;;2.17;;
31906;SDS011;18455;50.858;13.662;2023-04-24T20:04:56;2.17;;;1.97;;
31906;SDS011;18455;50.858;13.662;2023-04-24T20:09:56;4.17;;;2.30;;
31906;SDS011;18455;50.858;13.662;2023-04-24T20:14:56;3.50;;;2.33;;
31906;SDS011;18455;50.858;13.662;2023-04-24T20:19:57;3.93;;;2.60;;
31906;SDS011;18455;50.858;13.662;2023-04-24T20:24:57;2.63;;;2.40;;
31906;SDS011;18455;50.858;13.662;2023-04-24T20:29:57;2.50;;;2.30;;
31906;SDS011;18455;50.858;13.662;2023-04-24T20:34:58;2.60;;;2.20;;
31906;SDS011;18455;50.858;13.662;2023-04-24T20:39:58;2.23;;;2.03;;
31906;SDS011;18455;50.858;13.662;2023-04-24T20:45:04;2.40;;;2.20;;
31906;SDS011;18455;50.858;13.662;2023-04-24T20:50:05;2.40;;;2.20;;
31906;SDS011;18455;50.858;13.662;2023-04-24T20:55:06;2.63;;;2.30;;
31906;SDS011;18455;50.858;13.662;2023-04-24T21:00:07;2.87;;;2.37;;
31906;SDS011;18455;50.858;13.662;2023-04-24T21:05:09;3.10;;;2.43;;
31906;SDS011;18455;50.858;13.662;2023-04-24T21:10:10;3.13;;;2.37;;
31906;SDS011;18455;50.858;13.662;2023-04-24T21:15:12;3.03;;;2.67;;
31906;SDS011;18455;50.858;13.662;2023-04-24T21:20:12;4.17;;;2.73;;
31906;SDS011;18455;50.858;13.662;2023-04-24T21:25:12;3.37;;;2.87;;
31906;SDS011;18455;50.858;13.662;2023-04-24T21:30:13;3.43;;;2.70;;
31906;SDS011;18455;50.858;13.662;2023-04-24T21:35:13;3.93;;;3.40;;
31906;SDS011;18455;50.858;13.662;2023-04-24T21:40:14;3.40;;;3.10;;
31906;SDS011;18455;50.858;13.662;2023-04-24T21:45:14;5.00;;;3.80;;
31906;SDS011;18455;50.858;13.662;2023-04-24T21:50:15;4.93;;;3.77;;
31906;SDS011;18455;50.858;13.662;2023-04-24T21:55:15;5.40;;;3.80;;
31906;SDS011;18455;50.858;13.662;2023-04-24T22:00:16;5.17;;;4.00;;
31906;SDS011;18455;50.858;13.662;2023-04-24T22:05:16;4.57;;;3.53;;
31906;SDS011;18455;50.858;13.662;2023-04-24T22:10:17;5.30;;;3.20;;
31906;SDS011;18455;50.858;13.662;2023-04-24T22:15:17;3.43;;;3.13;;
31906;SDS011;18455;50.858;13.662;2023-04-24T22:20:18;3.97;;;3.20;;
31906;SDS011;18455;50.858;13.662;2023-04-24T22:25:19;3.53;;;2.77;;
31906;SDS011;18455;50.858;13.662;2023-04-24T22:30:19;2.97;;;2.77;;
31906;SDS011;18455;50.858;13.662;2023-04-24T22:35:20;4.77;;;3.40;;
31906;SDS011;18455;50.858;13.662;2023-04-24T22:40:20;4.33;;;3.03;;
31906;SDS011;18455;50.858;13.662;2023-04-24T22:45:21;4.33;;;3.53;;
31906;SDS011;18455;50.858;13.662;2023-04-24T22:50:25;4.17;;;3.77;;
31906;SDS011;18455;50.858;13.662;2023-04-24T22:55:25;4.90;;;4.20;;
31906;SDS011;18455;50.858;13.662;2023-04-24T23:00:25;7.10;;;4.10;;
31906;SDS011;18455;50.858;13.662;2023-04-24T23:05:26;6.07;;;4.33;;
31906;SDS011;18455;50.858;13.662;2023-04-24T23:10:27;5.73;;;4.60;;
31906;SDS011;18455;50.858;13.662;2023-04-24T23:15:27;8.47;;;4.33;;
31906;SDS011;18455;50.858;13.662;2023-04-24T23:20:27;5.77;;;4.90;;
31906;SDS011;18455;50.858;13.662;2023-04-24T23:25:28;5.93;;;4.73;;
31906;SDS011;18455;50.858;13.662;2023-04-24T23:30:28;7.60;;;5.60;;
31906;SDS011;18455;50.858;13.662;2023-04-24T23:35:28;5.97;;;5.10;;
31906;SDS011;18455;50.858;13.662;2023-04-24T23:40:29;8.23;;;6.30;;
31906;SDS011;18455;50.858;13.662;2023-04-24T23:45:30;8.27;;;5.67;;
31906;SDS011;18455;50.858;13.662;2023-04-24T23:50:30;7.70;;;5.73;;
31906;SDS011;18455;50.858;13.662;2023-04-24T23:55:30;9.90;;;5.60;;
